createdAt,value
2022-08-25T00:00:01.578Z,21.40
2022-08-25T00:02:30.154Z,21.40
2022-08-25T00:04:56.898Z,21.40
2022-08-25T00:07:23.635Z,21.40
2022-08-25T00:09:51.071Z,21.30
2022-08-25T00:12:18.292Z,21.30
2022-08-25T00:14:44.984Z,21.30
2022-08-25T00:17:12.099Z,21.30
2022-08-25T00:19:38.984Z,21.30
2022-08-25T00:22:06.404Z,21.20
2022-08-25T00:24:33.229Z,21.20
2022-08-25T00:27:01.652Z,21.20
2022-08-25T00:29:28.925Z,21.10
2022-08-25T00:31:55.697Z,21.10
2022-08-25T00:34:24.366Z,21.00
2022-08-25T00:36:51.774Z,21.00
2022-08-25T00:39:21.095Z,21.00
2022-08-25T00:41:49.019Z,21.00
2022-08-25T00:44:19.177Z,20.90
2022-08-25T00:46:47.949Z,20.90
2022-08-25T00:49:24.914Z,20.90
2022-08-25T00:52:10.565Z,20.80
2022-08-25T00:54:49.345Z,20.80
2022-08-25T00:57:18.349Z,20.70
2022-08-25T00:59:48.928Z,20.70
2022-08-25T01:02:17.123Z,20.70
2022-08-25T01:04:49.002Z,20.70
2022-08-25T01:07:17.928Z,20.60
2022-08-25T01:09:46.160Z,20.60
2022-08-25T01:12:12.911Z,20.60
2022-08-25T01:14:39.804Z,20.50
2022-08-25T01:17:06.528Z,20.50
2022-08-25T01:19:36.136Z,20.50
2022-08-25T01:22:02.965Z,20.50
2022-08-25T01:24:38.857Z,20.40
2022-08-25T01:27:05.824Z,20.40
2022-08-25T01:29:32.990Z,20.30
2022-08-25T01:32:01.221Z,20.30
2022-08-25T01:34:29.307Z,20.20
2022-08-25T01:36:57.016Z,20.20
2022-08-25T01:39:24.117Z,20.20
2022-08-25T01:41:59.779Z,20.20
2022-08-25T01:44:26.491Z,20.20
2022-08-25T01:46:54.581Z,20.20
2022-08-25T01:49:21.470Z,20.20
2022-08-25T01:51:51.239Z,20.20
2022-08-25T01:54:17.940Z,20.20
2022-08-25T01:56:44.696Z,20.20
2022-08-25T01:59:12.172Z,20.10
2022-08-25T02:01:40.886Z,20.20
2022-08-25T02:04:07.673Z,20.20
2022-08-25T02:06:35.048Z,20.20
2022-08-25T02:09:05.718Z,20.20
2022-08-25T02:11:33.774Z,20.30
2022-08-25T02:14:01.204Z,20.40
2022-08-25T02:16:29.573Z,20.50
2022-08-25T02:18:56.829Z,20.60
2022-08-25T02:21:24.047Z,20.80
2022-08-25T02:23:50.814Z,20.80
2022-08-25T02:26:19.119Z,21.00
2022-08-25T02:28:46.762Z,21.00
2022-08-25T02:31:13.681Z,21.10
2022-08-25T02:33:40.421Z,21.10
2022-08-25T02:36:07.685Z,21.20
2022-08-25T02:38:34.854Z,21.20
2022-08-25T02:41:07.827Z,21.30
2022-08-25T02:43:34.519Z,21.30
2022-08-25T02:46:01.258Z,21.40
2022-08-25T02:48:28.553Z,21.40
2022-08-25T02:50:55.464Z,21.40
2022-08-25T02:53:22.210Z,21.40
2022-08-25T02:55:48.930Z,21.40
2022-08-25T02:58:15.689Z,21.50
2022-08-25T03:00:42.448Z,21.50
2022-08-25T03:03:09.991Z,21.60
2022-08-25T03:05:36.790Z,21.60
2022-08-25T03:08:04.473Z,21.60
2022-08-25T03:10:31.724Z,21.60
2022-08-25T03:12:58.418Z,21.70
2022-08-25T03:15:27.603Z,21.70
2022-08-25T03:17:59.905Z,21.70
2022-08-25T03:20:27.907Z,21.70
2022-08-25T03:22:54.659Z,21.70
2022-08-25T03:25:40.163Z,21.70
2022-08-25T03:28:07.651Z,21.70
2022-08-25T03:30:34.918Z,21.70
2022-08-25T03:33:01.614Z,21.70
2022-08-25T03:35:28.305Z,21.70
2022-08-25T03:37:58.442Z,21.70
2022-08-25T03:40:26.366Z,21.70
2022-08-25T03:42:54.133Z,21.70
2022-08-25T03:45:20.912Z,21.80
2022-08-25T03:47:48.417Z,21.80
2022-08-25T03:50:16.057Z,21.70
2022-08-25T03:52:42.927Z,21.80
2022-08-25T03:55:10.900Z,21.80
2022-08-25T03:57:38.281Z,21.80
2022-08-25T04:00:06.324Z,21.80
2022-08-25T04:02:33.828Z,21.80
2022-08-25T04:05:01.006Z,21.80
2022-08-25T04:07:27.703Z,21.80
2022-08-25T04:09:55.108Z,21.70
2022-08-25T04:12:21.957Z,21.70
2022-08-25T04:14:49.922Z,21.70
2022-08-25T04:17:17.471Z,21.70
2022-08-25T04:19:44.214Z,21.70
2022-08-25T04:22:11.058Z,21.70
2022-08-25T04:24:40.307Z,21.70
2022-08-25T04:27:07.024Z,21.80
2022-08-25T04:29:34.175Z,21.80
2022-08-25T04:32:01.043Z,21.70
2022-08-25T04:34:30.131Z,21.70
2022-08-25T04:37:02.600Z,21.70
2022-08-25T04:39:29.324Z,21.70
2022-08-25T04:41:56.025Z,21.70
2022-08-25T04:44:22.753Z,21.70
2022-08-25T04:46:50.016Z,21.70
2022-08-25T04:49:16.779Z,21.70
2022-08-25T04:51:43.588Z,21.70
2022-08-25T04:54:11.856Z,21.70
2022-08-25T04:56:41.586Z,21.70
2022-08-25T04:59:10.619Z,21.70
2022-08-25T05:01:38.463Z,21.70
2022-08-25T05:04:06.348Z,21.60
2022-08-25T05:06:33.608Z,21.60
2022-08-25T05:09:01.592Z,21.60
2022-08-25T05:11:29.020Z,21.50
2022-08-25T05:13:56.492Z,21.50
2022-08-25T05:16:24.435Z,21.50
2022-08-25T05:18:51.526Z,21.50
2022-08-25T05:21:22.663Z,21.50
2022-08-25T05:23:52.434Z,21.50
2022-08-25T05:26:21.203Z,21.50
2022-08-25T05:28:50.075Z,21.60
2022-08-25T05:31:17.818Z,21.60
2022-08-25T05:33:44.766Z,21.70
2022-08-25T05:36:13.104Z,21.70
2022-08-25T05:38:41.017Z,21.80
2022-08-25T05:41:10.489Z,21.90
2022-08-25T05:43:38.151Z,21.90
2022-08-25T05:46:05.103Z,22.00
2022-08-25T05:48:31.880Z,22.10
2022-08-25T05:51:00.691Z,22.10
2022-08-25T05:53:28.267Z,22.20
2022-08-25T05:55:58.478Z,22.20
2022-08-25T05:58:27.941Z,22.30
2022-08-25T06:00:55.206Z,22.40
2022-08-25T06:03:22.015Z,22.40
2022-08-25T06:05:48.847Z,22.50
2022-08-25T06:08:16.415Z,22.60
2022-08-25T06:10:43.188Z,22.60
2022-08-25T06:13:09.925Z,22.60
2022-08-25T06:15:36.905Z,22.70
2022-08-25T06:18:03.771Z,22.70
2022-08-25T06:20:31.514Z,22.70
2022-08-25T06:22:58.365Z,22.70
2022-08-25T06:25:25.947Z,22.80
2022-08-25T06:27:53.844Z,22.80
2022-08-25T06:30:25.710Z,22.80
2022-08-25T06:32:55.523Z,22.80
2022-08-25T06:35:22.774Z,22.80
2022-08-25T06:37:49.523Z,22.80
2022-08-25T06:40:17.119Z,22.90
2022-08-25T06:42:48.046Z,22.90
2022-08-25T06:45:14.820Z,22.90
2022-08-25T06:47:41.648Z,22.90
2022-08-25T06:50:08.565Z,23.00
2022-08-25T06:52:35.718Z,23.00
2022-08-25T06:55:02.763Z,23.10
2022-08-25T06:57:31.985Z,23.10
2022-08-25T06:59:59.852Z,23.20
2022-08-25T07:02:26.839Z,23.40
2022-08-25T07:04:53.807Z,23.40
2022-08-25T07:07:21.382Z,23.50
2022-08-25T07:09:48.335Z,23.60
2022-08-25T07:12:15.052Z,23.60
2022-08-25T07:14:44.263Z,23.70
2022-08-25T07:17:21.456Z,23.80
2022-08-25T07:19:50.048Z,23.90
2022-08-25T07:22:24.298Z,24.00
2022-08-25T07:24:51.013Z,24.10
2022-08-25T07:27:17.710Z,24.20
2022-08-25T07:29:44.638Z,24.30
2022-08-25T07:32:11.375Z,24.40
2022-08-25T07:34:56.799Z,24.60
2022-08-25T07:37:47.607Z,24.70
2022-08-25T07:40:12.666Z,24.90
2022-08-25T07:42:40.759Z,25.00
2022-08-25T07:45:07.896Z,25.20
2022-08-25T07:47:35.866Z,25.40
2022-08-25T07:50:05.716Z,25.50
2022-08-25T07:52:32.579Z,25.70
2022-08-25T07:55:00.607Z,25.80
2022-08-25T07:57:28.363Z,25.90
2022-08-25T07:59:55.534Z,26.00
2022-08-25T08:02:24.786Z,26.20
2022-08-25T08:04:52.105Z,26.30
2022-08-25T08:07:20.138Z,26.50
2022-08-25T08:09:55.900Z,26.60
2022-08-25T08:12:27.321Z,26.80
2022-08-25T08:14:55.059Z,27.00
2022-08-25T08:17:21.968Z,27.20
2022-08-25T08:19:48.666Z,27.30
2022-08-25T08:22:15.705Z,27.40
2022-08-25T08:24:54.071Z,27.50
2022-08-25T08:27:21.821Z,27.70
2022-08-25T08:29:49.305Z,27.90
2022-08-25T08:32:18.511Z,28.00
2022-08-25T08:34:47.031Z,28.10
2022-08-25T08:37:18.497Z,28.30
2022-08-25T08:39:47.091Z,28.30
2022-08-25T08:42:36.970Z,28.40
2022-08-25T08:45:09.623Z,28.50
2022-08-25T08:47:39.736Z,28.80
2022-08-25T08:50:17.575Z,28.80
2022-08-25T08:52:48.782Z,28.70
2022-08-25T08:55:27.941Z,28.70
2022-08-25T08:57:57.529Z,28.70
2022-08-25T09:00:26.030Z,28.80
2022-08-25T09:02:57.661Z,28.80
2022-08-25T09:05:28.144Z,28.90
2022-08-25T09:07:59.967Z,29.00
2022-08-25T09:10:29.156Z,29.10
2022-08-25T09:13:15.303Z,29.10
2022-08-25T09:16:11.276Z,29.00
2022-08-25T09:18:51.216Z,29.20
2022-08-25T09:21:25.360Z,29.40
2022-08-25T09:24:07.395Z,29.50
2022-08-25T09:26:37.058Z,29.60
2022-08-25T09:29:10.900Z,29.70
2022-08-25T09:31:44.808Z,29.60
2022-08-25T09:34:22.348Z,29.70
2022-08-25T09:36:52.827Z,29.80
2022-08-25T09:39:20.937Z,29.90
2022-08-25T09:41:51.553Z,30.10
2022-08-25T09:44:26.022Z,30.20
2022-08-25T09:47:03.896Z,30.20
2022-08-25T09:49:37.541Z,30.20
2022-08-25T09:52:22.861Z,30.20
2022-08-25T09:54:53.275Z,30.20
2022-08-25T09:57:36.913Z,30.40
2022-08-25T10:00:30.615Z,30.50
2022-08-25T10:03:10.018Z,30.70
2022-08-25T10:05:45.949Z,30.80
2022-08-25T10:08:24.795Z,30.90
2022-08-25T10:10:57.347Z,31.00
2022-08-25T10:13:33.410Z,31.20
2022-08-25T10:16:24.654Z,31.10
2022-08-25T10:19:04.491Z,31.10
2022-08-25T10:21:31.691Z,31.20
2022-08-25T10:24:00.882Z,31.20
2022-08-25T10:26:27.667Z,31.30
2022-08-25T10:29:02.858Z,31.20
2022-08-25T10:31:38.009Z,31.30
2022-08-25T10:34:16.009Z,31.30
2022-08-25T10:36:47.041Z,31.20
2022-08-25T10:39:34.293Z,31.30
2022-08-25T10:42:13.147Z,31.30
2022-08-25T10:45:05.567Z,31.40
2022-08-25T10:47:50.032Z,31.50
2022-08-25T10:50:23.618Z,31.60
2022-08-25T10:52:57.319Z,31.60
2022-08-25T10:55:47.213Z,31.50
2022-08-25T10:58:19.798Z,31.50
2022-08-25T11:01:04.732Z,31.50
2022-08-25T11:03:38.551Z,31.40
2022-08-25T11:06:12.380Z,31.40
2022-08-25T11:08:42.471Z,31.40
2022-08-25T11:11:24.803Z,31.50
2022-08-25T11:14:06.328Z,31.80
2022-08-25T11:16:48.612Z,31.90
2022-08-25T11:19:38.920Z,32.10
2022-08-25T11:22:11.734Z,32.40
2022-08-25T11:24:39.931Z,32.50
2022-08-25T11:27:10.274Z,32.70
2022-08-25T11:29:41.939Z,32.70
2022-08-25T11:32:08.927Z,32.70
2022-08-25T11:34:43.008Z,32.80
2022-08-25T11:37:39.760Z,32.90
2022-08-25T11:40:20.576Z,33.00
2022-08-25T11:42:57.828Z,33.30
2022-08-25T11:45:29.404Z,33.40
2022-08-25T11:47:56.183Z,33.30
2022-08-25T11:50:30.291Z,33.40
2022-08-25T11:52:59.400Z,33.40
2022-08-25T11:55:36.890Z,33.40
2022-08-25T11:58:33.097Z,33.30
2022-08-25T12:01:00.918Z,33.40
2022-08-25T12:03:46.010Z,33.40
2022-08-25T12:06:16.562Z,33.30
2022-08-25T12:09:02.926Z,33.40
2022-08-25T12:11:42.283Z,33.40
2022-08-25T12:14:24.484Z,33.40
2022-08-25T12:16:54.978Z,33.50
2022-08-25T12:19:26.753Z,33.70
2022-08-25T12:22:03.514Z,33.80
2022-08-25T12:24:47.886Z,33.90
2022-08-25T12:27:24.832Z,34.00
2022-08-25T12:30:26.272Z,33.90
2022-08-25T12:33:10.681Z,34.00
2022-08-25T12:35:41.883Z,34.20
2022-08-25T12:38:09.016Z,34.20
2022-08-25T12:40:37.942Z,34.40
2022-08-25T12:43:10.384Z,34.50
2022-08-25T12:45:39.253Z,34.60
2022-08-25T12:48:24.698Z,34.70
2022-08-25T12:50:59.152Z,34.70
2022-08-25T12:53:38.035Z,34.80
2022-08-25T12:56:10.353Z,35.10
2022-08-25T12:59:01.433Z,35.30
2022-08-25T13:01:53.353Z,35.30
2022-08-25T13:04:38.851Z,35.30
2022-08-25T13:07:17.731Z,35.50
2022-08-25T13:10:11.141Z,35.70
2022-08-25T13:13:01.070Z,35.80
2022-08-25T13:15:39.799Z,35.90
2022-08-25T13:18:14.719Z,35.90
2022-08-25T13:20:44.250Z,35.90
2022-08-25T13:23:11.292Z,35.80
2022-08-25T13:25:46.800Z,35.70
2022-08-25T13:28:24.702Z,35.70
2022-08-25T13:30:57.286Z,35.70
2022-08-25T13:33:25.104Z,35.60
2022-08-25T13:36:14.659Z,35.40
2022-08-25T13:38:42.256Z,35.50
2022-08-25T13:41:16.792Z,35.60
2022-08-25T13:43:45.001Z,35.70
2022-08-25T13:46:15.357Z,35.80
2022-08-25T13:48:49.394Z,35.80
2022-08-25T13:51:24.682Z,35.80
2022-08-25T13:54:02.820Z,36.00
2022-08-25T13:56:41.581Z,36.20
2022-08-25T13:59:25.911Z,36.50
2022-08-25T14:01:54.121Z,36.60
2022-08-25T14:04:21.115Z,36.60
2022-08-25T14:06:48.236Z,36.70
2022-08-25T14:09:17.561Z,36.80
2022-08-25T14:11:49.944Z,36.80
2022-08-25T14:14:23.745Z,36.50
2022-08-25T14:16:54.386Z,36.50
2022-08-25T14:19:24.722Z,36.30
2022-08-25T14:21:56.781Z,36.20
2022-08-25T14:24:23.831Z,36.20
2022-08-25T14:26:53.811Z,36.30
2022-08-25T14:29:22.187Z,36.00
2022-08-25T14:31:50.007Z,35.90
2022-08-25T14:34:21.938Z,36.00
2022-08-25T14:36:49.904Z,36.20
2022-08-25T14:39:17.988Z,36.20
2022-08-25T14:41:53.114Z,36.40
2022-08-25T14:44:21.589Z,36.40
2022-08-25T14:46:54.993Z,36.50
2022-08-25T14:49:29.847Z,36.50
2022-08-25T14:52:00.493Z,36.40
2022-08-25T14:54:28.056Z,36.50
2022-08-25T14:56:57.332Z,36.60
2022-08-25T14:59:24.295Z,36.70
2022-08-25T15:01:51.598Z,36.60
2022-08-25T15:04:22.317Z,36.80
2022-08-25T15:06:55.149Z,37.00
2022-08-25T15:09:22.093Z,36.90
2022-08-25T15:11:51.011Z,36.50
2022-08-25T15:14:28.616Z,36.30
2022-08-25T15:17:01.630Z,36.00
2022-08-25T15:19:29.232Z,35.90
2022-08-25T15:21:57.800Z,35.80
2022-08-25T15:24:26.979Z,36.00
2022-08-25T15:26:59.720Z,36.00
2022-08-25T15:29:30.239Z,35.80
2022-08-25T15:31:59.780Z,35.60
2022-08-25T15:34:27.276Z,35.40
2022-08-25T15:36:55.676Z,35.20
2022-08-25T15:39:22.533Z,35.20
2022-08-25T15:41:52.190Z,35.30
2022-08-25T15:44:19.320Z,35.30
2022-08-25T15:46:47.185Z,35.20
2022-08-25T15:49:20.841Z,35.30
2022-08-25T15:51:52.590Z,35.40
2022-08-25T15:54:20.645Z,35.50
2022-08-25T15:56:47.802Z,35.80
2022-08-25T15:59:14.915Z,35.80
2022-08-25T16:01:43.411Z,36.00
2022-08-25T16:04:11.100Z,36.00
2022-08-25T16:06:38.500Z,36.00
2022-08-25T16:09:06.578Z,36.10
2022-08-25T16:11:35.241Z,36.10
2022-08-25T16:14:06.122Z,36.10
2022-08-25T16:16:33.794Z,36.00
2022-08-25T16:19:02.400Z,35.80
2022-08-25T16:21:35.018Z,35.50
2022-08-25T16:24:07.476Z,35.20
2022-08-25T16:26:36.518Z,35.10
2022-08-25T16:29:04.489Z,34.90
2022-08-25T16:31:33.568Z,34.70
2022-08-25T16:34:01.550Z,34.60
2022-08-25T16:36:28.909Z,34.50
2022-08-25T16:38:57.269Z,34.40
2022-08-25T16:41:25.288Z,34.30
2022-08-25T16:43:52.178Z,34.20
2022-08-25T16:46:20.671Z,33.90
2022-08-25T16:48:48.607Z,33.80
2022-08-25T16:51:16.650Z,33.60
2022-08-25T16:54:05.081Z,33.30
2022-08-25T16:56:35.179Z,33.00
2022-08-25T16:59:04.513Z,32.70
2022-08-25T17:01:34.102Z,32.40
2022-08-25T17:04:01.347Z,32.20
2022-08-25T17:06:29.057Z,32.10
2022-08-25T17:08:56.390Z,31.90
2022-08-25T17:11:25.962Z,31.80
2022-08-25T17:13:54.303Z,31.70
2022-08-25T17:16:24.824Z,31.60
2022-08-25T17:18:51.874Z,31.50
2022-08-25T17:21:24.410Z,31.40
2022-08-25T17:23:52.987Z,31.20
2022-08-25T17:26:20.121Z,31.00
2022-08-25T17:28:55.107Z,30.90
2022-08-25T17:31:23.043Z,30.80
2022-08-25T17:33:52.310Z,30.70
2022-08-25T17:36:19.198Z,30.60
2022-08-25T17:38:45.945Z,30.50
2022-08-25T17:41:12.689Z,30.30
2022-08-25T17:43:43.790Z,30.30
2022-08-25T17:46:11.981Z,30.20
2022-08-25T17:48:43.823Z,30.10
2022-08-25T17:51:10.945Z,29.90
2022-08-25T17:53:38.659Z,29.80
2022-08-25T17:56:09.617Z,29.80
2022-08-25T17:58:36.931Z,29.70
2022-08-25T18:01:04.916Z,29.50
2022-08-25T18:03:32.158Z,29.40
2022-08-25T18:05:58.955Z,29.30
2022-08-25T18:08:34.910Z,29.20
2022-08-25T18:11:03.075Z,29.10
2022-08-25T18:13:31.301Z,29.00
2022-08-25T18:15:58.206Z,28.90
2022-08-25T18:18:24.903Z,28.80
2022-08-25T18:20:51.735Z,28.60
2022-08-25T18:23:19.912Z,28.50
2022-08-25T18:25:48.359Z,28.40
2022-08-25T18:28:15.212Z,28.20
2022-08-25T18:30:42.466Z,28.10
2022-08-25T18:33:09.769Z,28.00
2022-08-25T18:35:36.591Z,27.90
2022-08-25T18:38:23.853Z,27.80
2022-08-25T18:40:54.835Z,27.60
2022-08-25T18:43:21.570Z,27.50
2022-08-25T18:45:48.877Z,27.40
2022-08-25T18:48:16.832Z,27.40
2022-08-25T18:50:44.321Z,27.20
2022-08-25T18:53:12.812Z,27.10
2022-08-25T18:55:40.196Z,27.00
2022-08-25T18:58:08.015Z,26.90
2022-08-25T19:00:35.867Z,26.80
2022-08-25T19:03:02.810Z,26.70
2022-08-25T19:05:34.918Z,26.60
2022-08-25T19:08:02.937Z,26.40
2022-08-25T19:10:30.252Z,26.20
2022-08-25T19:12:58.106Z,26.10
2022-08-25T19:15:29.859Z,25.90
2022-08-25T19:17:57.434Z,25.90
2022-08-25T19:20:24.821Z,25.80
2022-08-25T19:22:52.172Z,25.70
2022-08-25T19:25:20.542Z,25.60
2022-08-25T19:27:48.130Z,25.60
2022-08-25T19:30:17.030Z,25.50
2022-08-25T19:32:44.838Z,25.50
2022-08-25T19:35:17.007Z,25.40
2022-08-25T19:37:43.884Z,25.40
2022-08-25T19:40:13.524Z,25.40
2022-08-25T19:42:45.038Z,25.30
2022-08-25T19:45:12.131Z,25.30
2022-08-25T19:47:40.014Z,25.20
2022-08-25T19:50:07.582Z,25.20
2022-08-25T19:52:34.543Z,25.10
2022-08-25T19:55:05.230Z,25.00
2022-08-25T19:57:42.803Z,25.00
2022-08-25T20:00:19.023Z,25.00
2022-08-25T20:02:46.175Z,25.00
2022-08-25T20:05:13.397Z,24.90
2022-08-25T20:07:46.922Z,24.90
2022-08-25T20:10:14.134Z,24.90
2022-08-25T20:12:41.412Z,24.90
2022-08-25T20:15:10.697Z,24.90
2022-08-25T20:17:37.427Z,24.80
2022-08-25T20:20:10.387Z,24.70
2022-08-25T20:22:37.615Z,24.70
2022-08-25T20:25:15.649Z,24.60
2022-08-25T20:27:50.662Z,24.60
2022-08-25T20:30:19.749Z,24.50
2022-08-25T20:32:46.541Z,24.50
2022-08-25T20:35:16.524Z,24.50
2022-08-25T20:37:44.478Z,24.50
2022-08-25T20:40:13.302Z,24.40
2022-08-25T20:42:40.627Z,24.40
2022-08-25T20:45:10.541Z,24.40
2022-08-25T20:47:37.299Z,24.40
2022-08-25T20:50:06.977Z,24.30
2022-08-25T20:52:34.897Z,24.30
2022-08-25T20:55:01.763Z,24.20
2022-08-25T20:57:28.725Z,24.20
2022-08-25T20:59:56.987Z,24.20
2022-08-25T21:02:24.523Z,24.10
2022-08-25T21:04:51.828Z,24.10
2022-08-25T21:07:19.984Z,24.10
2022-08-25T21:09:47.412Z,24.00
2022-08-25T21:12:16.491Z,23.90
2022-08-25T21:14:44.233Z,23.90
2022-08-25T21:17:12.114Z,23.90
2022-08-25T21:19:39.934Z,23.90
2022-08-25T21:22:07.566Z,23.90
2022-08-25T21:24:34.619Z,23.90
2022-08-25T21:27:03.756Z,23.90
2022-08-25T21:29:32.646Z,23.90
2022-08-25T21:31:59.783Z,23.90
2022-08-25T21:34:28.763Z,23.90
2022-08-25T21:36:57.845Z,23.90
2022-08-25T21:39:31.957Z,23.90
2022-08-25T21:42:00.712Z,23.90
2022-08-25T21:44:28.503Z,23.90
2022-08-25T21:46:56.303Z,23.90
2022-08-25T21:49:23.496Z,23.90
2022-08-25T21:52:00.051Z,23.90
2022-08-25T21:54:28.725Z,23.80
2022-08-25T21:56:59.231Z,23.80
2022-08-25T21:59:27.477Z,23.80
2022-08-25T22:02:02.161Z,23.80
2022-08-25T22:04:30.028Z,23.80
2022-08-25T22:06:58.105Z,23.70
2022-08-25T22:09:26.440Z,23.70
2022-08-25T22:11:55.642Z,23.60
2022-08-25T22:14:23.489Z,23.60
2022-08-25T22:16:52.053Z,23.50
2022-08-25T22:19:19.764Z,23.40
2022-08-25T22:21:46.521Z,23.40
2022-08-25T22:24:15.235Z,23.30
2022-08-25T22:26:42.083Z,23.30
2022-08-25T22:29:14.536Z,23.20
2022-08-25T22:31:53.920Z,23.20
2022-08-25T22:34:30.314Z,23.20
2022-08-25T22:36:59.628Z,23.20
2022-08-25T22:39:26.893Z,23.30
2022-08-25T22:41:53.913Z,23.30
2022-08-25T22:44:20.657Z,23.40
2022-08-25T22:46:47.373Z,23.40
2022-08-25T22:49:14.328Z,23.50
2022-08-25T22:51:44.503Z,23.60
2022-08-25T22:54:15.067Z,23.60
2022-08-25T22:56:41.975Z,23.60
2022-08-25T22:59:10.111Z,23.60
2022-08-25T23:01:36.949Z,23.40
2022-08-25T23:04:05.742Z,23.40
2022-08-25T23:06:34.533Z,23.40
2022-08-25T23:09:02.103Z,23.40
2022-08-25T23:11:29.196Z,23.30
2022-08-25T23:13:57.277Z,23.30
2022-08-25T23:16:24.459Z,23.30
2022-08-25T23:18:51.374Z,23.20
2022-08-25T23:21:40.730Z,23.20
2022-08-25T23:24:08.801Z,23.20
2022-08-25T23:26:37.874Z,23.20
2022-08-25T23:29:17.967Z,23.20
2022-08-25T23:31:46.598Z,23.30
2022-08-25T23:34:13.487Z,23.30
2022-08-25T23:36:40.345Z,23.40
2022-08-25T23:39:07.666Z,23.40
2022-08-25T23:41:36.862Z,23.50
2022-08-25T23:44:05.544Z,23.60
2022-08-25T23:46:34.955Z,23.60
2022-08-25T23:49:02.674Z,23.60
2022-08-25T23:51:33.519Z,23.70
2022-08-25T23:54:04.043Z,23.70
2022-08-25T23:56:30.762Z,23.70
2022-08-25T23:58:58.013Z,23.80
